Time;durP1;ratioP1;P1;durP2;ratioP2;P2;SDS_P1;SDS_P2;PMS_P1;PMS_P2;Temp;Humidity;BMP_temperature;BMP_pressure;BME280_temperature;BME280_humidity;BME280_pressure;Samples;Min_cycle;Max_cycle;Signal;HPM_P1;HPM_P2
2022/07/06 00:00:03;;;;;;;15.32;2.63;;;;;;;;;;1038757;28;20108;-77
2022/07/06 00:00:33;;;;;;;9.93;2.65;;;;;;;;;;1041447;28;20567;-77
2022/07/06 00:01:04;;;;;;;12.63;2.17;;;;;;;;;;1042440;28;20033;-77
2022/07/06 00:01:34;;;;;;;8.40;2.22;;;;;;;;;;1043774;28;20025;-77
2022/07/06 00:02:05;;;;;;;12.35;3.05;;;;;;;;;;1037695;28;20029;-77
2022/07/06 00:02:35;;;;;;;10.93;1.88;;;;;;;;;;1042871;28;20028;-77
2022/07/06 00:03:05;;;;;;;18.17;2.38;;;;;;;;;;1041411;28;20527;-77
2022/07/06 00:03:36;;;;;;;18.25;3.40;;;;;;;;;;1040898;28;20032;-77
2022/07/06 00:04:07;;;;;;;10.43;2.17;;;;;;;;;;1043295;28;20480;-77
2022/07/06 00:04:37;;;;;;;6.60;1.83;;;;;;;;;;1041833;28;20056;-77
2022/07/06 00:05:08;;;;;;;20.42;2.97;;;;;;;;;;1039121;28;20111;-77
2022/07/06 00:05:38;;;;;;;12.57;2.47;;;;;;;;;;1043686;28;20020;-77
2022/07/06 00:06:09;;;;;;;20.33;2.42;;;;;;;;;;1040091;28;20029;-77
2022/07/06 00:06:39;;;;;;;20.30;2.45;;;;;;;;;;1036716;28;20022;-77
2022/07/06 00:07:10;;;;;;;16.00;3.10;;;;;;;;;;1040586;28;20025;-77
2022/07/06 00:07:40;;;;;;;8.25;2.83;;;;;;;;;;1040935;28;20448;-77
2022/07/06 00:08:11;;;;;;;16.15;3.22;;;;;;;;;;1036904;28;20030;-77
2022/07/06 00:08:41;;;;;;;14.45;2.45;;;;;;;;;;1038142;28;20022;-77
2022/07/06 00:09:12;;;;;;;15.30;3.05;;;;;;;;;;1036864;28;20040;-77
2022/07/06 00:09:42;;;;;;;20.52;2.65;;;;;;;;;;1040055;28;20116;-77
2022/07/06 00:10:13;;;;;;;8.70;1.88;;;;;;;;;;1041952;28;20139;-77
2022/07/06 00:10:44;;;;;;;9.27;2.40;;;;;;;;;;1041555;28;20024;-77
2022/07/06 00:11:14;;;;;;;9.63;1.88;;;;;;;;;;1037900;28;20417;-77
2022/07/06 00:11:45;;;;;;;15.27;2.22;;;;;;;;;;1041753;28;20029;-77
2022/07/06 00:12:15;;;;;;;22.80;2.38;;;;;;;;;;1043449;28;20021;-77
2022/07/06 00:12:46;;;;;;;21.45;2.63;;;;;;;;;;1042506;28;20089;-77
2022/07/06 00:13:16;;;;;;;19.80;2.15;;;;;;;;;;1042954;28;20029;-77
2022/07/06 00:13:47;;;;;;;30.92;2.60;;;;;;;;;;1042813;28;20396;-77
2022/07/06 00:14:17;;;;;;;6.95;2.60;;;;;;;;;;1043146;28;20033;-77
2022/07/06 00:14:48;;;;;;;17.75;2.85;;;;;;;;;;1041772;28;20021;-77
2022/07/06 00:15:18;;;;;;;16.10;3.10;;;;;;;;;;1042271;28;20059;-77
2022/07/06 00:15:49;;;;;;;17.13;3.40;;;;;;;;;;1040596;28;20045;-77
2022/07/06 00:16:19;;;;;;;5.80;2.13;;;;;;;;;;1039637;28;20497;-77
2022/07/06 00:16:50;;;;;;;23.95;2.25;;;;;;;;;;1042088;28;20124;-77
2022/07/06 00:17:20;;;;;;;13.98;2.13;;;;;;;;;;1041582;28;20040;-77
2022/07/06 00:17:51;;;;;;;10.90;2.10;;;;;;;;;;1041137;28;20071;-77
2022/07/06 00:18:21;;;;;;;15.95;2.47;;;;;;;;;;1042546;28;20525;-77
2022/07/06 00:18:52;;;;;;;17.65;2.67;;;;;;;;;;1043123;28;20021;-77
2022/07/06 00:19:22;;;;;;;12.13;2.45;;;;;;;;;;1043500;28;20048;-77
2022/07/06 00:19:53;;;;;;;19.63;2.60;;;;;;;;;;1042370;28;20025;-77
2022/07/06 00:20:23;;;;;;;10.88;2.05;;;;;;;;;;1039040;28;20549;-77
2022/07/06 00:20:54;;;;;;;23.05;2.45;;;;;;;;;;1039520;28;20060;-77
2022/07/06 00:21:24;;;;;;;26.30;3.67;;;;;;;;;;1037190;28;20076;-77
2022/07/06 00:21:55;;;;;;;12.55;2.67;;;;;;;;;;1040953;28;20014;-77
2022/07/06 00:22:25;;;;;;;21.77;2.00;;;;;;;;;;1039234;28;20068;-77
2022/07/06 00:22:56;;;;;;;3.28;1.63;;;;;;;;;;1035868;28;20069;-77
2022/07/06 00:23:26;;;;;;;13.50;1.85;;;;;;;;;;1036085;28;20025;-77
2022/07/06 00:23:57;;;;;;;18.98;2.58;;;;;;;;;;1036527;28;20030;-77
2022/07/06 00:24:27;;;;;;;12.20;2.35;;;;;;;;;;1035217;28;20033;-77
2022/07/06 00:24:58;;;;;;;18.30;2.45;;;;;;;;;;1038244;28;20022;-77
2022/07/06 00:25:28;;;;;;;15.85;2.20;;;;;;;;;;1036193;28;20030;-77
2022/07/06 00:25:59;;;;;;;20.70;5.25;;;;;;;;;;1035196;28;20022;-77
2022/07/06 00:26:29;;;;;;;19.20;3.08;;;;;;;;;;1038236;28;20125;-77
2022/07/06 00:27:00;;;;;;;10.88;1.92;;;;;;;;;;1041549;28;20091;-77
2022/07/06 00:27:30;;;;;;;18.27;2.53;;;;;;;;;;1038185;28;20018;-77
2022/07/06 00:28:01;;;;;;;20.60;3.42;;;;;;;;;;1042456;28;20021;-77
2022/07/06 00:28:31;;;;;;;13.52;2.50;;;;;;;;;;1043490;28;20924;-77
2022/07/06 00:29:02;;;;;;;10.20;2.92;;;;;;;;;;1040826;28;20489;-77
2022/07/06 00:29:32;;;;;;;14.82;2.75;;;;;;;;;;1042530;28;20104;-77
2022/07/06 00:30:03;;;;;;;17.08;3.38;;;;;;;;;;1041721;28;20041;-77
2022/07/06 00:30:33;;;;;;;10.27;3.38;;;;;;;;;;1040970;28;20108;-77
2022/07/06 00:31:05;;;;;;;18.88;3.45;;;;;;;;;;1041586;28;20080;-77
2022/07/06 00:31:35;;;;;;;12.52;2.75;;;;;;;;;;1041883;28;20029;-77
2022/07/06 00:32:06;;;;;;;17.88;3.65;;;;;;;;;;1042290;28;20021;-77
2022/07/06 00:32:37;;;;;;;17.45;3.05;;;;;;;;;;1042488;28;20119;-77
2022/07/06 00:33:07;;;;;;;26.52;3.28;;;;;;;;;;1042385;28;20029;-77
2022/07/06 00:33:38;;;;;;;17.00;3.80;;;;;;;;;;1043813;28;20048;-77
2022/07/06 00:34:08;;;;;;;13.93;3.70;;;;;;;;;;1037964;28;20081;-77
2022/07/06 00:34:39;;;;;;;22.20;3.22;;;;;;;;;;1036709;28;20485;-77
2022/07/06 00:35:09;;;;;;;21.30;3.10;;;;;;;;;;1040283;28;20022;-77
2022/07/06 00:35:40;;;;;;;17.48;3.20;;;;;;;;;;1040718;28;20147;-77
2022/07/06 00:36:10;;;;;;;11.45;3.60;;;;;;;;;;1041753;28;20013;-77
2022/07/06 00:36:41;;;;;;;9.27;2.13;;;;;;;;;;1043474;28;20060;-77
2022/07/06 00:37:15;;;;;;;14.20;2.47;;;;;;;;;;1041671;28;20040;-77
2022/07/06 00:37:45;;;;;;;16.98;2.78;;;;;;;;;;1041964;28;20073;-77
2022/07/06 00:38:16;;;;;;;13.25;2.50;;;;;;;;;;1041096;28;20030;-77
2022/07/06 00:38:46;;;;;;;25.95;3.60;;;;;;;;;;1042293;28;20090;-77
2022/07/06 00:39:19;;;;;;;11.55;2.92;;;;;;;;;;1039848;28;20026;-77
2022/07/06 00:39:49;;;;;;;36.10;3.08;;;;;;;;;;1042245;28;20080;-77
2022/07/06 00:40:20;;;;;;;22.15;3.88;;;;;;;;;;1039804;28;20021;-77
2022/07/06 00:40:50;;;;;;;29.00;2.95;;;;;;;;;;1040668;28;20504;-77
2022/07/06 00:41:21;;;;;;;16.90;2.72;;;;;;;;;;1042644;28;20017;-77
2022/07/06 00:41:51;;;;;;;12.25;3.17;;;;;;;;;;1042667;28;20017;-77
2022/07/06 00:42:22;;;;;;;10.48;2.83;;;;;;;;;;1044704;28;20016;-77
2022/07/06 00:42:52;;;;;;;13.98;3.03;;;;;;;;;;1043700;28;20483;-77
2022/07/06 00:43:23;;;;;;;24.13;3.20;;;;;;;;;;1042627;28;20021;-77
2022/07/06 00:43:57;;;;;;;15.63;2.97;;;;;;;;;;1042532;28;20021;-77
2022/07/06 00:44:28;;;;;;;14.07;3.10;;;;;;;;;;1041649;28;20515;-77
2022/07/06 00:44:59;;;;;;;21.45;2.95;;;;;;;;;;1041556;28;20017;-77
2022/07/06 00:45:29;;;;;;;12.57;3.65;;;;;;;;;;1042359;28;20868;-77
2022/07/06 00:46:00;;;;;;;12.95;2.95;;;;;;;;;;1044036;28;20496;-77
2022/07/06 00:46:31;;;;;;;29.17;3.78;;;;;;;;;;1043106;28;20067;-77
2022/07/06 00:47:02;;;;;;;18.33;3.45;;;;;;;;;;1038759;28;20110;-77
2022/07/06 00:47:32;;;;;;;26.92;3.22;;;;;;;;;;1040454;28;20169;-77
2022/07/06 00:48:03;;;;;;;27.00;3.78;;;;;;;;;;1040557;28;20029;-77
2022/07/06 00:48:33;;;;;;;14.88;2.90;;;;;;;;;;1041901;28;20072;-77
2022/07/06 00:49:04;;;;;;;20.35;2.90;;;;;;;;;;1044148;28;20033;-77
2022/07/06 00:50:25;;;;;;;18.80;3.72;;;;;;;;;;1043127;28;20033;-77
2022/07/06 00:50:55;;;;;;;29.60;5.03;;;;;;;;;;1042812;28;20025;-77
2022/07/06 00:51:29;;;;;;;18.98;3.60;;;;;;;;;;1042387;28;20111;-77
2022/07/06 00:52:00;;;;;;;24.38;3.55;;;;;;;;;;1040086;28;20068;-77
2022/07/06 00:52:30;;;;;;;15.07;5.05;;;;;;;;;;1036682;28;20622;-77
2022/07/06 00:53:03;;;;;;;21.73;3.72;;;;;;;;;;1036917;28;20021;-77
2022/07/06 00:53:33;;;;;;;17.92;4.30;;;;;;;;;;1041044;28;20024;-77
2022/07/06 00:54:04;;;;;;;16.92;2.88;;;;;;;;;;1043544;28;20036;-77
2022/07/06 00:54:36;;;;;;;14.77;3.60;;;;;;;;;;1038046;28;20405;-77
2022/07/06 00:55:07;;;;;;;21.35;3.30;;;;;;;;;;1038705;28;20031;-77
2022/07/06 00:55:41;;;;;;;19.42;3.15;;;;;;;;;;1043673;28;20024;-77
2022/07/06 00:56:12;;;;;;;17.83;3.65;;;;;;;;;;1043433;28;20037;-77
2022/07/06 00:56:42;;;;;;;24.02;4.22;;;;;;;;;;1043099;28;20590;-77
2022/07/06 00:57:13;;;;;;;30.25;3.95;;;;;;;;;;1043100;28;20492;-77
2022/07/06 00:57:43;;;;;;;22.98;6.07;;;;;;;;;;1043817;28;20052;-77
2022/07/06 00:58:14;;;;;;;19.67;6.70;;;;;;;;;;1044047;28;20025;-77
2022/07/06 00:58:44;;;;;;;25.48;6.95;;;;;;;;;;1044013;28;20029;-77
2022/07/06 00:59:15;;;;;;;29.92;5.63;;;;;;;;;;1042983;28;20096;-77
2022/07/06 00:59:45;;;;;;;21.67;4.32;;;;;;;;;;1043711;28;20020;-77
2022/07/06 01:00:17;;;;;;;19.65;4.53;;;;;;;;;;1043292;28;20382;-77
2022/07/06 01:00:48;;;;;;;16.63;3.85;;;;;;;;;;1042993;28;20032;-77
2022/07/06 01:01:18;;;;;;;17.77;4.03;;;;;;;;;;1042206;28;20028;-77
2022/07/06 01:01:49;;;;;;;28.30;4.72;;;;;;;;;;1043702;28;20021;-77
2022/07/06 01:02:22;;;;;;;24.55;5.28;;;;;;;;;;1044084;28;20025;-77
2022/07/06 01:02:53;;;;;;;63.47;17.00;;;;;;;;;;1042383;28;20385;-77
2022/07/06 01:03:23;;;;;;;51.80;18.08;;;;;;;;;;1042907;28;20021;-77
2022/07/06 01:03:54;;;;;;;57.85;16.40;;;;;;;;;;1040725;28;20047;-77
2022/07/06 01:04:25;;;;;;;38.50;12.18;;;;;;;;;;1043057;28;20491;-77
2022/07/06 01:04:55;;;;;;;40.88;11.20;;;;;;;;;;1042984;28;20036;-77
2022/07/06 01:05:26;;;;;;;40.05;9.70;;;;;;;;;;1041022;28;20055;-77
2022/07/06 01:05:56;;;;;;;26.25;6.60;;;;;;;;;;1039387;28;20018;-77
2022/07/06 01:06:27;;;;;;;26.90;8.90;;;;;;;;;;1038657;28;20052;-77
2022/07/06 01:06:58;;;;;;;36.95;8.57;;;;;;;;;;1039310;28;20485;-77
2022/07/06 01:07:28;;;;;;;35.17;8.02;;;;;;;;;;1043123;28;20415;-77
2022/07/06 01:08:00;;;;;;;33.08;7.30;;;;;;;;;;1041489;28;20021;-77
2022/07/06 01:08:31;;;;;;;23.58;6.40;;;;;;;;;;1041208;28;20036;-77
2022/07/06 01:09:03;;;;;;;27.40;6.90;;;;;;;;;;1042124;28;20022;-77
2022/07/06 01:09:33;;;;;;;34.38;5.25;;;;;;;;;;1043744;28;20418;-77
2022/07/06 01:10:04;;;;;;;21.45;4.20;;;;;;;;;;1041426;28;20029;-77
2022/07/06 01:10:35;;;;;;;25.42;4.22;;;;;;;;;;1041536;28;20088;-77
2022/07/06 01:11:06;;;;;;;20.10;4.45;;;;;;;;;;1043034;28;20022;-77
2022/07/06 01:11:36;;;;;;;21.15;3.78;;;;;;;;;;1042847;28;20017;-77
2022/07/06 01:12:08;;;;;;;19.75;3.70;;;;;;;;;;1043680;28;20129;-77
2022/07/06 01:12:39;;;;;;;28.25;4.00;;;;;;;;;;1043281;28;20033;-77
2022/07/06 01:13:10;;;;;;;15.90;3.08;;;;;;;;;;1042102;28;20022;-77
2022/07/06 01:13:41;;;;;;;18.85;3.33;;;;;;;;;;1042990;28;20025;-77
2022/07/06 01:14:12;;;;;;;12.95;3.15;;;;;;;;;;1040895;28;20068;-77
2022/07/06 01:14:43;;;;;;;26.70;3.65;;;;;;;;;;1043163;28;20025;-77
2022/07/06 01:15:18;;;;;;;26.83;4.80;;;;;;;;;;1039898;28;20033;-77
2022/07/06 01:15:48;;;;;;;16.42;3.92;;;;;;;;;;1042207;28;20029;-77
2022/07/06 01:16:19;;;;;;;19.50;4.28;;;;;;;;;;1042108;28;20451;-77
2022/07/06 01:16:50;;;;;;;17.50;3.03;;;;;;;;;;1040403;28;20404;-77
2022/07/06 01:17:20;;;;;;;17.52;3.05;;;;;;;;;;1037526;28;20022;-77
2022/07/06 01:17:51;;;;;;;23.20;2.97;;;;;;;;;;1038826;28;20461;-77
2022/07/06 01:18:22;;;;;;;19.27;2.72;;;;;;;;;;1038126;28;20127;-77
2022/07/06 01:18:52;;;;;;;32.58;3.10;;;;;;;;;;1041027;28;20444;-77
2022/07/06 01:19:23;;;;;;;18.83;4.38;;;;;;;;;;1041563;28;20409;-77
2022/07/06 01:19:53;;;;;;;12.60;3.58;;;;;;;;;;1041178;28;20480;-77
2022/07/06 01:20:25;;;;;;;14.43;2.15;;;;;;;;;;1043146;28;20021;-77
2022/07/06 01:21:11;;;;;;;14.80;2.97;;;;;;;;;;1039314;28;20025;-77
2022/07/06 01:21:42;;;;;;;13.48;2.28;;;;;;;;;;1034438;28;20125;-77
2022/07/06 01:22:12;;;;;;;11.55;2.72;;;;;;;;;;1035103;28;20043;-77
2022/07/06 01:22:43;;;;;;;33.60;3.03;;;;;;;;;;1040901;28;20123;-77
2022/07/06 01:23:14;;;;;;;17.58;3.42;;;;;;;;;;1041394;28;20456;-77
2022/07/06 01:23:45;;;;;;;24.52;2.90;;;;;;;;;;1043799;28;20020;-77
2022/07/06 01:24:16;;;;;;;41.72;5.22;;;;;;;;;;1040037;28;20032;-77
2022/07/06 01:24:46;;;;;;;15.35;2.92;;;;;;;;;;1039248;28;20064;-77
2022/07/06 01:25:18;;;;;;;26.25;4.13;;;;;;;;;;1041304;28;20033;-77
2022/07/06 01:25:48;;;;;;;28.25;3.65;;;;;;;;;;1037064;28;20098;-77
2022/07/06 01:26:20;;;;;;;19.38;3.00;;;;;;;;;;1039101;28;20025;-77
2022/07/06 01:26:50;;;;;;;24.15;2.65;;;;;;;;;;1038892;28;20028;-77
2022/07/06 01:27:21;;;;;;;17.67;2.50;;;;;;;;;;1036940;28;20041;-77
2022/07/06 01:27:51;;;;;;;18.30;2.03;;;;;;;;;;1039581;28;20033;-77
2022/07/06 01:28:22;;;;;;;20.75;2.10;;;;;;;;;;1042930;28;20174;-77
2022/07/06 01:28:52;;;;;;;17.80;1.80;;;;;;;;;;1041733;28;20131;-77
2022/07/06 01:29:23;;;;;;;21.17;3.08;;;;;;;;;;1042599;28;20124;-77
2022/07/06 01:29:53;;;;;;;15.40;2.70;;;;;;;;;;1040516;28;20449;-77
2022/07/06 01:30:24;;;;;;;16.35;2.65;;;;;;;;;;1037366;28;20026;-77
2022/07/06 01:30:54;;;;;;;12.15;2.65;;;;;;;;;;1040957;28;20025;-77
2022/07/06 01:31:25;;;;;;;10.20;3.00;;;;;;;;;;1041050;28;20029;-77
2022/07/06 01:31:56;;;;;;;16.17;2.05;;;;;;;;;;1038113;28;20539;-77
2022/07/06 01:32:26;;;;;;;13.43;2.88;;;;;;;;;;1038594;28;20026;-77
2022/07/06 01:32:57;;;;;;;18.58;2.88;;;;;;;;;;1034670;28;20030;-77
2022/07/06 01:33:27;;;;;;;20.15;3.60;;;;;;;;;;1039067;28;20039;-77
2022/07/06 01:33:58;;;;;;;20.55;4.10;;;;;;;;;;1033865;28;20454;-77
2022/07/06 01:34:29;;;;;;;21.42;3.20;;;;;;;;;;1030983;28;20521;-77
2022/07/06 01:34:59;;;;;;;12.45;3.53;;;;;;;;;;1036966;28;20022;-77
2022/07/06 01:35:31;;;;;;;24.08;3.25;;;;;;;;;;1038087;28;20077;-77
2022/07/06 01:36:02;;;;;;;22.85;3.00;;;;;;;;;;1041970;28;20028;-77
2022/07/06 01:36:32;;;;;;;19.73;4.53;;;;;;;;;;1042201;28;21789;-77
2022/07/06 01:37:03;;;;;;;29.35;4.32;;;;;;;;;;1041946;28;20047;-77
2022/07/06 01:37:35;;;;;;;16.90;3.40;;;;;;;;;;1038747;28;20025;-77
2022/07/06 01:38:06;;;;;;;20.75;3.75;;;;;;;;;;1038271;28;20102;-77
2022/07/06 01:39:03;;;;;;;18.35;4.25;;;;;;;;;;1042528;28;20035;-77
2022/07/06 01:39:33;;;;;;;29.67;5.25;;;;;;;;;;1038865;28;20042;-77
2022/07/06 01:40:05;;;;;;;19.70;5.60;;;;;;;;;;1041286;28;20555;-77
2022/07/06 01:40:35;;;;;;;24.75;5.88;;;;;;;;;;1040668;28;20037;-77
2022/07/06 01:41:06;;;;;;;17.83;5.03;;;;;;;;;;1040227;28;20029;-77
2022/07/06 01:41:37;;;;;;;23.30;5.93;;;;;;;;;;1042146;28;20032;-77
2022/07/06 01:42:08;;;;;;;18.33;6.32;;;;;;;;;;1041251;28;20029;-77
2022/07/06 01:42:39;;;;;;;23.35;6.70;;;;;;;;;;1043320;28;20025;-77
2022/07/06 01:43:09;;;;;;;17.83;4.03;;;;;;;;;;1041438;28;20025;-77
2022/07/06 01:43:40;;;;;;;19.15;5.40;;;;;;;;;;1037549;28;20030;-77
2022/07/06 01:44:11;;;;;;;13.93;3.63;;;;;;;;;;1031466;28;20113;-77
2022/07/06 01:44:41;;;;;;;15.55;4.53;;;;;;;;;;1034861;28;20049;-77
2022/07/06 01:45:12;;;;;;;22.63;4.43;;;;;;;;;;1034958;28;20984;-77
2022/07/06 01:45:42;;;;;;;19.30;4.82;;;;;;;;;;1039160;28;20025;-77
2022/07/06 01:46:13;;;;;;;19.00;4.20;;;;;;;;;;1039702;28;20070;-77
2022/07/06 01:46:43;;;;;;;22.73;3.85;;;;;;;;;;1040021;28;20469;-77
2022/07/06 01:47:14;;;;;;;20.50;3.20;;;;;;;;;;1039299;28;20053;-77
2022/07/06 01:47:44;;;;;;;27.33;5.07;;;;;;;;;;1039534;28;20452;-77
2022/07/06 01:48:15;;;;;;;31.25;5.63;;;;;;;;;;1040716;28;20029;-77
2022/07/06 01:48:46;;;;;;;17.15;4.40;;;;;;;;;;1037594;28;20430;-77
2022/07/06 01:49:24;;;;;;;15.88;3.90;;;;;;;;;;1040944;28;20037;-77
2022/07/06 01:49:57;;;;;;;26.90;5.07;;;;;;;;;;1040060;28;20034;-77
2022/07/06 01:50:28;;;;;;;18.45;4.28;;;;;;;;;;1041062;28;20083;-77
2022/07/06 01:50:58;;;;;;;19.92;3.67;;;;;;;;;;1035560;28;20523;-77
2022/07/06 01:51:29;;;;;;;25.85;4.88;;;;;;;;;;1035634;28;20583;-77
2022/07/06 01:51:59;;;;;;;22.13;4.35;;;;;;;;;;1034784;28;20025;-78
2022/07/06 01:52:30;;;;;;;18.88;4.22;;;;;;;;;;1035997;28;20026;-78
2022/07/06 01:53:31;;;;;;;16.43;3.90;;;;;;;;;;1041489;22;20540;-78
2022/07/06 01:54:01;;;;;;;20.20;4.22;;;;;;;;;;1037737;28;20040;-78
2022/07/06 01:54:32;;;;;;;17.80;4.55;;;;;;;;;;1038440;28;20026;-78
2022/07/06 01:55:02;;;;;;;21.05;4.60;;;;;;;;;;1037870;28;20092;-78
2022/07/06 01:55:33;;;;;;;13.10;3.30;;;;;;;;;;1037620;28;20030;-78
2022/07/06 01:56:03;;;;;;;24.35;3.78;;;;;;;;;;1036000;28;20432;-78
2022/07/06 01:56:34;;;;;;;19.55;4.00;;;;;;;;;;1036567;28;20029;-78
2022/07/06 01:57:04;;;;;;;12.32;3.10;;;;;;;;;;1031455;28;20033;-78
2022/07/06 01:57:35;;;;;;;20.15;3.90;;;;;;;;;;1044400;22;20589;-78
2022/07/06 01:58:05;;;;;;;17.15;3.00;;;;;;;;;;1036929;28;20028;-78
2022/07/06 01:58:36;;;;;;;17.27;3.17;;;;;;;;;;1038881;28;20525;-78
2022/07/06 01:59:07;;;;;;;25.17;3.45;;;;;;;;;;1035121;28;20103;-78
2022/07/06 01:59:37;;;;;;;21.13;3.72;;;;;;;;;;1038928;28;20400;-78
2022/07/06 02:00:08;;;;;;;24.90;3.33;;;;;;;;;;1038443;28;20021;-78
2022/07/06 02:00:39;;;;;;;12.85;3.50;;;;;;;;;;1042324;28;20036;-78
2022/07/06 02:01:17;;;;;;;23.85;3.20;;;;;;;;;;1037179;28;20022;-78
2022/07/06 02:01:47;;;;;;;22.05;4.43;;;;;;;;;;1037068;28;20051;-78
2022/07/06 02:02:18;;;;;;;19.70;2.58;;;;;;;;;;1032668;28;20025;-78
2022/07/06 02:02:49;;;;;;;15.55;2.95;;;;;;;;;;1035413;28;20025;-78
2022/07/06 02:03:19;;;;;;;10.30;2.90;;;;;;;;;;1034376;28;20044;-78
2022/07/06 02:03:50;;;;;;;13.15;2.83;;;;;;;;;;1035922;28;20037;-78
2022/07/06 02:04:20;;;;;;;25.00;4.07;;;;;;;;;;1038184;28;20036;-78
2022/07/06 02:04:51;;;;;;;15.68;2.88;;;;;;;;;;1033819;28;20099;-78
2022/07/06 02:05:22;;;;;;;14.75;3.30;;;;;;;;;;1035003;28;20085;-78
2022/07/06 02:05:52;;;;;;;17.30;2.28;;;;;;;;;;1033985;28;20034;-78
2022/07/06 02:06:23;;;;;;;16.55;3.65;;;;;;;;;;1034177;28;20030;-78
2022/07/06 02:06:53;;;;;;;20.13;2.72;;;;;;;;;;1035399;28;20045;-78
2022/07/06 02:07:24;;;;;;;43.28;4.13;;;;;;;;;;1034733;28;20401;-78
2022/07/06 02:07:54;;;;;;;21.48;3.42;;;;;;;;;;1033962;28;20041;-78
2022/07/06 02:08:25;;;;;;;22.88;3.83;;;;;;;;;;1034936;28;20057;-78
2022/07/06 02:08:56;;;;;;;14.27;2.63;;;;;;;;;;1032699;28;20072;-78
2022/07/06 02:09:26;;;;;;;12.90;2.92;;;;;;;;;;1031005;28;20110;-78
2022/07/06 02:09:57;;;;;;;26.58;3.40;;;;;;;;;;1034039;28;20104;-78
2022/07/06 02:10:27;;;;;;;30.50;5.03;;;;;;;;;;1033080;28;20026;-78
2022/07/06 02:10:58;;;;;;;16.55;3.40;;;;;;;;;;1045150;22;20163;-77
2022/07/06 02:11:28;;;;;;;13.25;2.72;;;;;;;;;;1049093;22;20062;-77
2022/07/06 02:11:59;;;;;;;18.60;5.28;;;;;;;;;;1047015;22;20030;-77
2022/07/06 02:12:29;;;;;;;14.18;3.30;;;;;;;;;;1057416;22;20044;-77
2022/07/06 02:13:00;;;;;;;10.20;3.55;;;;;;;;;;1046264;28;20147;-77
2022/07/06 02:13:31;;;;;;;16.58;4.65;;;;;;;;;;1046190;28;20029;-78
2022/07/06 02:14:01;;;;;;;18.95;3.88;;;;;;;;;;1046213;28;20063;-78
2022/07/06 02:14:31;;;;;;;14.93;3.42;;;;;;;;;;1044228;28;20504;-78
2022/07/06 02:15:02;;;;;;;12.55;2.63;;;;;;;;;;1043445;28;20028;-78
2022/07/06 02:15:33;;;;;;;19.77;2.97;;;;;;;;;;1044378;28;20436;-78
2022/07/06 02:16:04;;;;;;;23.08;3.50;;;;;;;;;;1044176;28;20021;-78
2022/07/06 02:16:35;;;;;;;32.33;4.53;;;;;;;;;;1046799;28;20082;-78
2022/07/06 02:17:05;;;;;;;14.13;3.75;;;;;;;;;;1046922;28;20028;-78
2022/07/06 02:17:36;;;;;;;15.57;2.92;;;;;;;;;;1045100;28;20082;-78
2022/07/06 02:18:07;;;;;;;16.30;3.15;;;;;;;;;;1046426;28;20074;-78
2022/07/06 02:18:37;;;;;;;12.82;3.03;;;;;;;;;;1047881;28;20016;-77
2022/07/06 02:19:08;;;;;;;16.42;3.28;;;;;;;;;;1045371;28;20033;-77
2022/07/06 02:19:38;;;;;;;18.00;2.97;;;;;;;;;;1046356;28;20111;-77
2022/07/06 02:20:09;;;;;;;17.77;3.30;;;;;;;;;;1046863;28;20024;-77
2022/07/06 02:20:40;;;;;;;15.30;3.13;;;;;;;;;;1044776;28;20067;-77
2022/07/06 02:21:10;;;;;;;15.48;3.22;;;;;;;;;;1045367;28;20082;-77
2022/07/06 02:21:41;;;;;;;12.50;3.40;;;;;;;;;;1046120;28;20034;-77
2022/07/06 02:22:11;;;;;;;15.75;3.00;;;;;;;;;;1043689;28;20020;-77
2022/07/06 02:22:42;;;;;;;19.67;3.08;;;;;;;;;;1046122;28;20028;-77
2022/07/06 02:23:12;;;;;;;18.80;3.70;;;;;;;;;;1045057;28;20135;-77
2022/07/06 02:23:43;;;;;;;11.07;3.28;;;;;;;;;;1042277;28;20029;-77
2022/07/06 02:24:13;;;;;;;16.17;2.92;;;;;;;;;;1045557;28;20028;-77
2022/07/06 02:24:44;;;;;;;19.75;2.97;;;;;;;;;;1043509;28;20178;-77
2022/07/06 02:25:14;;;;;;;21.30;3.40;;;;;;;;;;1042943;28;20024;-77
2022/07/06 02:25:45;;;;;;;27.27;3.53;;;;;;;;;;1043358;28;20454;-77
2022/07/06 02:26:15;;;;;;;22.40;2.72;;;;;;;;;;1049751;22;20348;-77
2022/07/06 02:26:46;;;;;;;14.05;3.03;;;;;;;;;;1042567;28;20024;-77
2022/07/06 02:27:16;;;;;;;9.60;2.40;;;;;;;;;;1040469;28;20477;-77
2022/07/06 02:27:47;;;;;;;10.98;2.60;;;;;;;;;;1042032;28;20079;-77
2022/07/06 02:28:17;;;;;;;12.85;2.25;;;;;;;;;;1041968;28;20025;-77
2022/07/06 02:28:48;;;;;;;9.27;1.60;;;;;;;;;;1040512;28;20401;-77
2022/07/06 02:29:19;;;;;;;15.05;3.25;;;;;;;;;;1039910;28;20025;-77
2022/07/06 02:29:50;;;;;;;17.02;2.67;;;;;;;;;;1039668;28;20079;-77
2022/07/06 02:30:26;;;;;;;9.77;2.33;;;;;;;;;;1035489;28;20030;-77
2022/07/06 02:30:56;;;;;;;16.67;2.50;;;;;;;;;;1048321;22;20539;-77
2022/07/06 02:31:27;;;;;;;15.73;3.33;;;;;;;;;;1059219;22;20230;-77
2022/07/06 02:31:57;;;;;;;14.30;2.83;;;;;;;;;;1038285;28;20029;-77
2022/07/06 02:32:28;;;;;;;19.27;2.90;;;;;;;;;;1047351;22;20044;-77
2022/07/06 02:32:58;;;;;;;15.43;3.45;;;;;;;;;;1041738;28;20037;-77
2022/07/06 02:33:29;;;;;;;19.67;3.50;;;;;;;;;;1038309;28;20626;-78
2022/07/06 02:33:59;;;;;;;20.77;3.13;;;;;;;;;;1040608;28;20028;-78
2022/07/06 02:34:30;;;;;;;13.80;2.45;;;;;;;;;;1039380;28;20037;-78
2022/07/06 02:35:00;;;;;;;18.95;3.25;;;;;;;;;;1039538;28;20495;-78
2022/07/06 02:35:31;;;;;;;17.65;3.10;;;;;;;;;;1034913;28;20077;-78
2022/07/06 02:36:01;;;;;;;25.92;3.55;;;;;;;;;;1031697;28;20453;-78
2022/07/06 02:36:32;;;;;;;22.40;2.58;;;;;;;;;;1031735;28;20068;-78
2022/07/06 02:37:02;;;;;;;13.30;2.70;;;;;;;;;;1036222;28;20022;-78
2022/07/06 02:37:33;;;;;;;13.32;2.15;;;;;;;;;;1037146;28;20393;-78
2022/07/06 02:38:03;;;;;;;16.25;3.05;;;;;;;;;;1038567;28;20022;-78
2022/07/06 02:38:34;;;;;;;13.10;3.17;;;;;;;;;;1035661;28;20060;-78
2022/07/06 02:39:04;;;;;;;14.55;2.55;;;;;;;;;;1033954;28;20026;-78
2022/07/06 02:39:35;;;;;;;19.90;3.47;;;;;;;;;;1032131;28;20752;-78
2022/07/06 02:40:06;;;;;;;23.83;3.22;;;;;;;;;;1032848;28;20026;-78
2022/07/06 02:40:36;;;;;;;16.15;4.03;;;;;;;;;;1038435;28;20025;-78
2022/07/06 02:41:07;;;;;;;18.23;3.58;;;;;;;;;;1037803;28;20029;-78
2022/07/06 02:41:38;;;;;;;31.02;5.72;;;;;;;;;;1037646;28;20069;-77
2022/07/06 02:42:08;;;;;;;21.05;3.65;;;;;;;;;;1034278;28;20025;-77
2022/07/06 02:42:39;;;;;;;16.27;4.10;;;;;;;;;;1036635;28;20018;-77
2022/07/06 02:43:09;;;;;;;14.05;3.13;;;;;;;;;;1038366;28;20044;-78
2022/07/06 02:43:40;;;;;;;20.45;3.28;;;;;;;;;;1038732;28;20477;-78
2022/07/06 02:44:10;;;;;;;16.95;2.97;;;;;;;;;;1038890;28;20017;-78
2022/07/06 02:44:41;;;;;;;19.25;3.65;;;;;;;;;;1037738;28;20131;-78
2022/07/06 02:45:11;;;;;;;20.23;3.05;;;;;;;;;;1034306;28;20037;-78
2022/07/06 02:45:42;;;;;;;11.30;2.92;;;;;;;;;;1042087;28;20024;-78
2022/07/06 02:46:12;;;;;;;16.27;2.83;;;;;;;;;;1034694;28;20065;-78
2022/07/06 02:46:43;;;;;;;10.00;2.70;;;;;;;;;;1039300;28;20029;-78
2022/07/06 02:47:13;;;;;;;12.93;3.67;;;;;;;;;;1038175;28;20108;-78
2022/07/06 02:47:44;;;;;;;16.48;3.17;;;;;;;;;;1038408;28;20045;-78
2022/07/06 02:48:14;;;;;;;28.02;3.85;;;;;;;;;;1038719;28;20030;-78
2022/07/06 02:48:45;;;;;;;23.23;3.35;;;;;;;;;;1037963;28;20093;-78
2022/07/06 02:49:15;;;;;;;17.27;3.20;;;;;;;;;;1037754;28;20026;-79
2022/07/06 02:49:46;;;;;;;14.50;3.58;;;;;;;;;;1053509;23;20068;-78
2022/07/06 02:50:17;;;;;;;19.27;2.65;;;;;;;;;;1063891;23;20506;-78
2022/07/06 02:50:47;;;;;;;22.95;4.40;;;;;;;;;;1040000;28;20045;-78
2022/07/06 02:51:18;;;;;;;25.50;3.75;;;;;;;;;;1038261;28;20184;-78
2022/07/06 02:51:48;;;;;;;17.60;3.13;;;;;;;;;;1041015;28;20036;-78
2022/07/06 02:52:19;;;;;;;21.20;3.22;;;;;;;;;;1039685;28;20079;-78
2022/07/06 02:52:49;;;;;;;16.75;3.33;;;;;;;;;;1041662;28;20029;-79
2022/07/06 02:53:20;;;;;;;19.67;3.55;;;;;;;;;;1039934;28;20034;-79
2022/07/06 02:53:50;;;;;;;15.07;2.90;;;;;;;;;;1037359;28;20061;-79
2022/07/06 02:54:21;;;;;;;17.33;3.47;;;;;;;;;;1039079;28;20029;-79
2022/07/06 02:54:53;;;;;;;19.88;3.17;;;;;;;;;;1040220;28;20029;-78
2022/07/06 02:55:23;;;;;;;23.27;2.58;;;;;;;;;;1038156;28;20029;-79
2022/07/06 02:55:54;;;;;;;22.75;3.38;;;;;;;;;;1040656;28;20029;-79
2022/07/06 02:56:24;;;;;;;16.75;2.47;;;;;;;;;;1041070;28;20017;-79
2022/07/06 02:56:55;;;;;;;22.67;3.53;;;;;;;;;;1039461;28;20032;-79
2022/07/06 02:57:25;;;;;;;15.10;3.30;;;;;;;;;;1037784;28;20484;-79
2022/07/06 02:57:56;;;;;;;18.60;3.03;;;;;;;;;;1040296;28;20033;-79
2022/07/06 02:58:28;;;;;;;20.15;3.33;;;;;;;;;;1040588;28;20187;-79
2022/07/06 02:58:59;;;;;;;13.88;2.30;;;;;;;;;;1040172;28;20029;-79
2022/07/06 02:59:30;;;;;;;16.30;2.88;;;;;;;;;;1042696;28;20020;-79
2022/07/06 03:00:00;;;;;;;19.52;3.15;;;;;;;;;;1040303;28;20021;-78
2022/07/06 03:00:31;;;;;;;13.23;2.65;;;;;;;;;;1041307;28;20075;-78
2022/07/06 03:01:01;;;;;;;17.10;3.50;;;;;;;;;;1040508;28;20524;-79
2022/07/06 03:01:32;;;;;;;27.70;4.00;;;;;;;;;;1038213;28;20017;-79
2022/07/06 03:02:04;;;;;;;16.95;2.63;;;;;;;;;;1035876;28;20022;-79
2022/07/06 03:02:34;;;;;;;23.25;3.60;;;;;;;;;;1040180;28;20056;-79
2022/07/06 03:03:05;;;;;;;18.15;4.03;;;;;;;;;;1040330;28;20043;-79
2022/07/06 03:03:35;;;;;;;24.88;4.20;;;;;;;;;;1040521;28;20126;-79